createdAt,value
2019-04-26T00:01:32.318Z,38.27
2019-04-26T00:04:09.296Z,38.26
2019-04-26T00:06:47.440Z,38.42
2019-04-26T00:09:39.129Z,38.83
2019-04-26T00:12:29.222Z,38.90
2019-04-26T00:15:07.167Z,38.99
2019-04-26T00:17:55.117Z,39.31
2019-04-26T00:20:31.539Z,39.36
2019-04-26T00:23:07.019Z,39.57
2019-04-26T00:25:43.136Z,39.89
2019-04-26T00:28:19.368Z,40.00
2019-04-26T00:30:59.910Z,40.16
2019-04-26T00:33:35.342Z,40.26
2019-04-26T00:36:13.832Z,40.53
2019-04-26T00:38:57.945Z,40.54
2019-04-26T00:41:34.716Z,40.71
2019-04-26T00:44:12.219Z,40.95
2019-04-26T00:46:52.813Z,41.15
2019-04-26T00:49:29.129Z,41.21
2019-04-26T00:52:08.619Z,41.46
2019-04-26T00:54:47.429Z,41.69
2019-04-26T00:57:24.349Z,41.85
2019-04-26T01:00:05.582Z,41.82
2019-04-26T01:02:46.979Z,42.07
2019-04-26T01:05:25.230Z,42.24
2019-04-26T01:08:01.210Z,42.42
2019-04-26T01:10:37.602Z,42.58
2019-04-26T01:13:14.012Z,42.88
2019-04-26T01:15:54.687Z,43.11
2019-04-26T01:18:30.229Z,43.28
2019-04-26T01:21:06.719Z,43.48
2019-04-26T01:23:44.190Z,43.61
2019-04-26T01:26:28.330Z,43.78
2019-04-26T01:29:18.591Z,44.03
2019-04-26T01:32:00.497Z,44.17
2019-04-26T01:34:41.014Z,44.41
2019-04-26T01:37:19.316Z,44.57
2019-04-26T01:39:59.872Z,44.80
2019-04-26T01:42:40.803Z,44.96
2019-04-26T01:45:21.782Z,45.22
2019-04-26T01:48:00.228Z,45.24
2019-04-26T01:50:37.241Z,45.37
2019-04-26T01:53:13.218Z,45.61
2019-04-26T01:55:48.464Z,45.72
2019-04-26T01:58:25.160Z,46.02
2019-04-26T02:01:08.109Z,46.46
2019-04-26T02:03:47.620Z,46.46
2019-04-26T02:06:28.756Z,46.58
2019-04-26T02:09:00.272Z,46.92
2019-04-26T02:11:37.048Z,47.07
2019-04-26T02:14:17.678Z,47.72
2019-04-26T02:16:53.928Z,47.68
2019-04-26T02:19:29.518Z,47.86
2019-04-26T02:22:24.523Z,47.88
2019-04-26T02:25:00.311Z,48.07
2019-04-26T02:27:36.371Z,48.36
2019-04-26T02:30:11.678Z,48.50
2019-04-26T02:32:46.804Z,48.66
2019-04-26T02:35:25.573Z,48.93
2019-04-26T02:38:01.743Z,49.17
2019-04-26T02:40:40.957Z,49.28
2019-04-26T02:43:17.710Z,49.45
2019-04-26T02:46:04.707Z,49.67
2019-04-26T02:49:00.862Z,49.64
2019-04-26T02:51:45.790Z,49.97
2019-04-26T02:54:31.034Z,50.30
2019-04-26T02:57:08.642Z,50.42
2019-04-26T02:59:44.720Z,50.65
2019-04-26T03:02:24.869Z,50.80
2019-04-26T03:05:02.592Z,51.12
2019-04-26T03:07:47.601Z,51.17
2019-04-26T03:10:25.858Z,51.47
2019-04-26T03:13:02.800Z,51.56
2019-04-26T03:15:42.780Z,51.85
2019-04-26T03:18:33.468Z,52.06
2019-04-26T03:21:47.426Z,52.26
2019-04-26T03:24:28.572Z,52.52
2019-04-26T03:27:16.809Z,52.82
2019-04-26T03:30:22.187Z,53.06
2019-04-26T03:33:19.265Z,53.06
2019-04-26T03:36:12.012Z,53.41
2019-04-26T03:39:25.252Z,53.83
2019-04-26T03:42:37.230Z,53.92
2019-04-26T03:45:20.448Z,54.37
2019-04-26T03:48:19.885Z,54.47
2019-04-26T03:51:05.338Z,54.44
2019-04-26T03:53:50.943Z,54.53
2019-04-26T03:56:30.843Z,54.65
2019-04-26T03:59:36.891Z,54.92
2019-04-26T04:02:32.878Z,55.15
2019-04-26T04:05:25.820Z,55.13
2019-04-26T04:08:03.029Z,55.41
2019-04-26T04:10:46.016Z,55.12
2019-04-26T04:13:44.395Z,55.41
2019-04-26T04:16:43.656Z,55.69
2019-04-26T04:19:33.490Z,55.41
2019-04-26T04:22:16.407Z,55.53
2019-04-26T04:25:08.839Z,55.47
2019-04-26T04:27:50.853Z,55.62
2019-04-26T04:30:47.298Z,55.33
2019-04-26T04:33:49.613Z,55.35
2019-04-26T04:36:28.107Z,55.61
2019-04-26T04:39:17.868Z,55.11
2019-04-26T04:42:31.495Z,55.06
2019-04-26T04:45:46.274Z,55.10
2019-04-26T04:48:52.694Z,55.11
2019-04-26T04:51:48.549Z,55.23
2019-04-26T04:54:37.661Z,55.14
2019-04-26T04:57:21.455Z,55.08
2019-04-26T05:00:25.951Z,55.08
2019-04-26T05:03:32.726Z,55.15
2019-04-26T05:06:28.398Z,55.06
2019-04-26T05:09:11.619Z,54.69
2019-04-26T05:12:12.148Z,54.08
2019-04-26T05:15:31.281Z,53.55
2019-04-26T05:18:38.395Z,53.78
2019-04-26T05:22:01.424Z,53.74
2019-04-26T05:25:18.137Z,53.48
2019-04-26T05:28:10.891Z,53.48
2019-04-26T05:31:17.643Z,53.26
2019-04-26T05:34:13.929Z,52.97
2019-04-26T05:37:00.012Z,52.99
2019-04-26T05:39:53.276Z,52.95
2019-04-26T05:43:22.557Z,53.00
2019-04-26T05:46:25.443Z,52.98
2019-04-26T05:49:26.940Z,52.70
2019-04-26T05:52:41.902Z,52.72
2019-04-26T05:55:30.880Z,52.94
2019-04-26T05:58:35.530Z,52.50
2019-04-26T06:01:42.150Z,52.35
2019-04-26T06:04:46.745Z,52.24
2019-04-26T06:07:59.475Z,52.27
2019-04-26T06:10:41.799Z,52.10
2019-04-26T06:13:25.323Z,51.67
2019-04-26T06:16:38.393Z,51.30
2019-04-26T06:19:51.961Z,51.17
2019-04-26T06:22:47.905Z,51.08
2019-04-26T06:25:58.313Z,50.67
2019-04-26T06:29:03.298Z,50.50
2019-04-26T06:31:45.473Z,50.72
2019-04-26T06:34:36.251Z,50.30
2019-04-26T06:37:25.757Z,49.85
2019-04-26T06:40:09.179Z,51.99
2019-04-26T06:43:07.969Z,50.19
2019-04-26T06:45:50.345Z,49.78
2019-04-26T06:48:34.286Z,51.50
2019-04-26T06:51:26.213Z,50.52
2019-04-26T06:54:15.868Z,49.66
2019-04-26T06:57:18.766Z,48.42
2019-04-26T07:00:00.171Z,49.27
2019-04-26T07:03:06.453Z,49.39
2019-04-26T07:05:46.399Z,46.92
2019-04-26T07:08:42.459Z,47.77
2019-04-26T07:11:38.534Z,45.61
2019-04-26T07:14:23.899Z,44.25
2019-04-26T07:17:07.871Z,40.18
2019-04-26T07:20:08.463Z,37.10
2019-04-26T07:23:08.704Z,33.69
2019-04-26T07:26:23.155Z,31.20
2019-04-26T07:29:29.332Z,29.09
2019-04-26T07:32:30.862Z,29.24
2019-04-26T07:35:31.644Z,30.88
2019-04-26T07:38:24.891Z,32.19
2019-04-26T07:41:27.667Z,32.59
2019-04-26T07:44:17.594Z,32.93
2019-04-26T07:47:28.349Z,32.39
2019-04-26T07:50:20.335Z,32.73
2019-04-26T07:53:11.327Z,32.49
2019-04-26T07:56:12.349Z,33.77
2019-04-26T07:59:17.597Z,33.92
2019-04-26T08:02:00.922Z,31.18
2019-04-26T08:04:43.256Z,29.31
2019-04-26T08:07:24.283Z,28.82
2019-04-26T08:10:12.928Z,27.60
2019-04-26T08:12:55.147Z,26.25
2019-04-26T08:15:41.215Z,25.60
2019-04-26T08:18:36.659Z,25.70
2019-04-26T08:21:21.222Z,25.50
2019-04-26T08:24:07.953Z,25.44
2019-04-26T08:26:51.578Z,25.34
2019-04-26T08:29:29.894Z,24.82
2019-04-26T08:32:13.896Z,24.63
2019-04-26T08:34:53.484Z,24.07
2019-04-26T08:37:41.443Z,23.91
2019-04-26T08:40:25.512Z,24.11
2019-04-26T08:43:27.283Z,22.37
2019-04-26T08:46:32.327Z,21.05
2019-04-26T08:49:27.449Z,20.69
2019-04-26T08:52:14.520Z,19.93
2019-04-26T08:54:52.105Z,21.53
2019-04-26T08:57:35.647Z,23.24
2019-04-26T09:00:18.751Z,25.87
2019-04-26T09:03:11.581Z,28.21
2019-04-26T09:06:14.157Z,29.29
2019-04-26T09:08:53.917Z,29.51
2019-04-26T09:11:34.015Z,29.18
2019-04-26T09:14:09.845Z,28.51
2019-04-26T09:16:52.936Z,29.27
2019-04-26T09:19:32.229Z,29.26
2019-04-26T09:22:17.355Z,29.42
2019-04-26T09:24:59.375Z,29.93
2019-04-26T09:27:42.490Z,30.31
2019-04-26T09:30:33.149Z,30.13
2019-04-26T09:33:02.004Z,28.63
2019-04-26T09:35:39.125Z,27.96
2019-04-26T09:38:16.099Z,28.37
2019-04-26T09:40:55.849Z,28.47
2019-04-26T09:43:43.974Z,29.15
2019-04-26T09:46:37.361Z,30.35
2019-04-26T09:49:17.756Z,29.53
2019-04-26T09:51:55.282Z,29.43
2019-04-26T09:54:32.138Z,28.89
2019-04-26T09:57:07.955Z,28.34
2019-04-26T09:59:51.997Z,27.34
2019-04-26T10:02:33.841Z,27.92
2019-04-26T10:05:11.959Z,27.86
2019-04-26T10:07:51.121Z,28.04
2019-04-26T10:10:30.982Z,25.97
2019-04-26T10:13:07.919Z,25.97
2019-04-26T10:16:06.933Z,26.81
2019-04-26T10:18:48.561Z,26.67
2019-04-26T10:21:24.174Z,26.62
2019-04-26T10:24:08.539Z,27.13
2019-04-26T10:26:45.891Z,27.31
2019-04-26T10:29:31.746Z,26.96
2019-04-26T10:32:07.635Z,28.27
2019-04-26T10:34:47.380Z,30.20
2019-04-26T10:37:25.155Z,30.06
2019-04-26T10:40:00.385Z,28.33
2019-04-26T10:42:37.738Z,26.01
2019-04-26T10:45:14.799Z,23.70
2019-04-26T10:47:51.259Z,21.91
2019-04-26T10:50:28.819Z,20.59
2019-04-26T10:53:12.574Z,20.10
2019-04-26T10:55:52.018Z,19.78
2019-04-26T10:58:38.411Z,19.30
2019-04-26T11:01:17.189Z,18.78
2019-04-26T11:04:01.238Z,18.50
2019-04-26T11:06:38.667Z,18.26
2019-04-26T11:09:14.209Z,17.82
2019-04-26T11:11:55.280Z,17.62
2019-04-26T11:14:31.903Z,17.39
2019-04-26T11:17:16.032Z,17.47
2019-04-26T11:19:55.915Z,18.81
2019-04-26T11:22:37.561Z,19.10
2019-04-26T11:25:13.822Z,19.15
2019-04-26T11:27:53.291Z,19.58
2019-04-26T11:30:31.446Z,18.51
2019-04-26T11:33:11.069Z,19.11
2019-04-26T11:35:47.288Z,18.88
2019-04-26T11:38:38.979Z,19.33
2019-04-26T11:41:25.035Z,20.14
2019-04-26T11:47:33.126Z,19.25
2019-04-26T11:50:21.809Z,19.57
2019-04-26T11:52:57.787Z,18.97
2019-04-26T11:55:35.665Z,17.96
2019-04-26T11:58:22.040Z,17.06
2019-04-26T12:01:00.497Z,16.74
2019-04-26T12:03:36.363Z,17.38
2019-04-26T12:06:13.541Z,18.49
2019-04-26T12:08:53.020Z,19.69
2019-04-26T12:11:49.052Z,20.63
2019-04-26T12:14:20.349Z,21.19
2019-04-26T12:16:59.239Z,20.58
2019-04-26T12:19:32.162Z,20.12
2019-04-26T12:22:08.362Z,19.86
2019-04-26T12:24:57.067Z,20.21
2019-04-26T12:27:33.382Z,21.51
2019-04-26T12:30:10.690Z,22.18
2019-04-26T12:32:46.797Z,22.53
2019-04-26T12:35:25.261Z,23.61
2019-04-26T12:38:01.404Z,25.02
2019-04-26T12:40:42.228Z,25.66
2019-04-26T12:43:20.193Z,26.21
2019-04-26T12:45:57.822Z,25.48
2019-04-26T12:48:33.738Z,25.39
2019-04-26T12:51:12.036Z,24.44
2019-04-26T12:53:47.898Z,22.91
2019-04-26T12:56:26.815Z,20.59
2019-04-26T12:59:06.095Z,19.37
2019-04-26T13:01:46.374Z,18.17
2019-04-26T13:04:21.783Z,18.49
2019-04-26T13:07:22.726Z,19.52
2019-04-26T13:10:07.984Z,19.85
2019-04-26T13:12:51.773Z,18.62
2019-04-26T13:16:06.737Z,17.83
2019-04-26T13:18:45.216Z,18.05
2019-04-26T13:21:21.436Z,18.30
2019-04-26T13:24:05.880Z,18.11
2019-04-26T13:26:43.594Z,18.58
2019-04-26T13:29:22.991Z,18.67
2019-04-26T13:31:59.339Z,19.24
2019-04-26T13:34:37.166Z,18.88
2019-04-26T13:37:16.600Z,19.58
2019-04-26T13:39:56.759Z,21.42
2019-04-26T13:42:34.274Z,22.59
2019-04-26T13:45:15.478Z,23.26
2019-04-26T13:48:09.485Z,22.59
2019-04-26T13:50:51.831Z,23.01
2019-04-26T13:53:27.954Z,23.84
2019-04-26T13:56:03.894Z,23.07
2019-04-26T13:58:40.423Z,21.49
2019-04-26T14:01:19.792Z,20.07
2019-04-26T14:03:55.149Z,19.21
2019-04-26T14:06:37.449Z,19.15
2019-04-26T14:09:16.309Z,19.17
2019-04-26T14:11:51.881Z,18.76
2019-04-26T14:14:30.268Z,18.05
2019-04-26T14:17:05.814Z,17.57
2019-04-26T14:19:49.443Z,16.97
2019-04-26T14:22:29.194Z,17.00
2019-04-26T14:25:14.036Z,16.45
2019-04-26T14:27:52.910Z,16.47
2019-04-26T14:30:28.384Z,17.11
2019-04-26T14:33:09.221Z,17.60
2019-04-26T14:35:50.690Z,17.66
2019-04-26T14:38:30.269Z,17.26
2019-04-26T14:41:05.062Z,17.55
2019-04-26T14:43:41.849Z,17.31
2019-04-26T14:46:19.430Z,17.43
2019-04-26T14:49:02.063Z,17.74
2019-04-26T14:51:35.328Z,18.36
2019-04-26T14:54:12.446Z,18.77
2019-04-26T14:56:52.459Z,19.50
2019-04-26T14:59:56.723Z,19.47
2019-04-26T15:02:32.996Z,20.12
2019-04-26T15:05:12.684Z,20.56
2019-04-26T15:07:53.950Z,21.47
2019-04-26T15:10:45.661Z,23.34
2019-04-26T15:13:20.423Z,23.34
2019-04-26T15:15:52.626Z,24.99
2019-04-26T15:18:29.248Z,25.95
2019-04-26T15:21:06.578Z,26.89
2019-04-26T15:23:42.812Z,27.61
2019-04-26T15:26:18.476Z,27.87
2019-04-26T15:28:57.042Z,28.32
2019-04-26T15:31:33.091Z,28.65
2019-04-26T15:34:09.819Z,29.19
2019-04-26T15:36:47.952Z,29.46
2019-04-26T15:39:26.988Z,28.89
2019-04-26T15:42:23.799Z,27.02
2019-04-26T15:45:17.837Z,24.68
2019-04-26T15:48:21.521Z,22.96
2019-04-26T15:50:58.204Z,21.48
2019-04-26T15:53:36.833Z,21.49
2019-04-26T15:56:14.626Z,21.44
2019-04-26T15:58:55.892Z,21.09
2019-04-26T16:01:34.000Z,20.53
2019-04-26T16:04:13.433Z,20.74
2019-04-26T16:06:54.748Z,20.45
2019-04-26T16:09:34.697Z,20.75
2019-04-26T16:12:13.417Z,22.03
2019-04-26T16:14:49.787Z,22.35
2019-04-26T16:17:25.969Z,22.49
2019-04-26T16:20:03.918Z,22.96
2019-04-26T16:22:39.746Z,23.25
2019-04-26T16:25:15.535Z,23.48
2019-04-26T16:27:52.909Z,23.68
2019-04-26T16:30:32.604Z,24.04
2019-04-26T16:33:09.342Z,24.24
2019-04-26T16:35:45.913Z,24.56
2019-04-26T16:38:37.886Z,24.75
2019-04-26T16:41:11.472Z,25.46
2019-04-26T16:43:53.276Z,27.20
2019-04-26T16:46:25.566Z,28.69
2019-04-26T16:49:02.357Z,30.34
2019-04-26T16:51:39.227Z,31.47
2019-04-26T16:54:21.859Z,32.47
2019-04-26T16:56:58.929Z,35.13
2019-04-26T16:59:33.523Z,35.13
2019-04-26T17:02:08.650Z,35.23
2019-04-26T17:04:43.829Z,35.73
2019-04-26T17:07:25.391Z,35.98
2019-04-26T17:09:59.509Z,36.18
2019-04-26T17:12:33.426Z,36.43
2019-04-26T17:15:08.915Z,36.52
2019-04-26T17:17:45.184Z,36.56
2019-04-26T17:20:21.891Z,36.67
2019-04-26T17:23:10.231Z,37.23
2019-04-26T17:25:55.167Z,37.63
2019-04-26T17:28:32.468Z,37.50
2019-04-26T17:31:07.822Z,37.81
2019-04-26T17:33:42.895Z,38.07
2019-04-26T17:36:17.994Z,38.55
2019-04-26T17:38:54.432Z,39.17
2019-04-26T17:41:44.984Z,39.32
2019-04-26T17:44:20.699Z,39.67
2019-04-26T17:46:56.944Z,40.15
2019-04-26T17:49:34.686Z,40.69
2019-04-26T17:52:11.637Z,40.97
2019-04-26T17:54:52.118Z,41.48
2019-04-26T17:57:34.717Z,41.99
2019-04-26T18:00:13.416Z,42.46
2019-04-26T18:02:51.084Z,43.02
2019-04-26T18:05:41.806Z,43.25
2019-04-26T18:08:30.405Z,43.41
2019-04-26T18:10:42.784Z,43.27
2019-04-26T18:13:17.795Z,43.57
2019-04-26T18:15:52.958Z,44.16
2019-04-26T18:18:40.003Z,44.42
2019-04-26T18:21:34.601Z,44.55
2019-04-26T18:24:10.514Z,44.54
2019-04-26T18:26:45.733Z,45.11
2019-04-26T18:29:23.714Z,45.61
2019-04-26T18:31:59.145Z,45.76
2019-04-26T18:34:40.300Z,46.06
2019-04-26T18:37:13.319Z,46.25
2019-04-26T18:39:49.064Z,46.57
2019-04-26T18:42:24.786Z,46.58
2019-04-26T18:45:03.526Z,46.67
2019-04-26T18:47:43.906Z,47.06
2019-04-26T18:50:19.547Z,46.88
2019-04-26T18:53:00.931Z,47.33
2019-04-26T18:55:36.559Z,47.56
2019-04-26T18:58:13.524Z,47.64
2019-04-26T19:00:48.919Z,47.88
2019-04-26T19:03:24.750Z,48.08
2019-04-26T19:06:02.516Z,48.39
2019-04-26T19:08:47.799Z,48.67
2019-04-26T19:11:15.874Z,48.67
2019-04-26T19:14:11.344Z,48.76
2019-04-26T19:16:50.637Z,49.66
2019-04-26T19:19:44.788Z,49.39
2019-04-26T19:22:20.891Z,49.49
2019-04-26T19:25:19.033Z,49.58
2019-04-26T19:27:50.229Z,49.84
2019-04-26T19:30:25.739Z,49.97
2019-04-26T19:33:03.049Z,50.02
2019-04-26T19:35:39.445Z,50.19
2019-04-26T19:38:15.747Z,50.08
2019-04-26T19:40:52.614Z,50.79
2019-04-26T19:43:34.992Z,50.24
2019-04-26T19:46:26.190Z,50.29
2019-04-26T19:49:25.912Z,50.37
2019-04-26T19:52:11.767Z,50.63
2019-04-26T19:55:02.337Z,50.77
2019-04-26T19:57:53.072Z,51.04
2019-04-26T20:00:29.324Z,50.63
2019-04-26T20:03:08.575Z,50.75
2019-04-26T20:05:44.374Z,50.70
2019-04-26T20:08:21.531Z,50.91
2019-04-26T20:10:57.316Z,50.93
2019-04-26T20:13:32.805Z,51.09
2019-04-26T20:16:09.994Z,51.16
2019-04-26T20:18:45.669Z,51.09
2019-04-26T20:21:22.041Z,51.13
2019-04-26T20:23:58.856Z,51.20
2019-04-26T20:26:37.368Z,51.24
2019-04-26T20:29:13.528Z,51.69
2019-04-26T20:31:59.623Z,52.18
2019-04-26T20:34:35.721Z,52.18
2019-04-26T20:37:16.155Z,51.74
2019-04-26T20:39:55.829Z,51.88
2019-04-26T20:42:31.653Z,51.84
2019-04-26T20:45:09.491Z,51.67
2019-04-26T20:47:46.923Z,51.99
2019-04-26T20:50:28.489Z,52.77
2019-04-26T20:53:03.093Z,52.28
2019-04-26T20:55:42.767Z,52.56
2019-04-26T20:58:18.366Z,52.78
2019-04-26T21:00:54.844Z,52.91
2019-04-26T21:03:32.083Z,53.11
2019-04-26T21:06:08.020Z,53.43
2019-04-26T21:08:43.244Z,52.95
2019-04-26T21:11:18.333Z,53.14
2019-04-26T21:13:54.037Z,53.47
2019-04-26T21:16:32.350Z,53.54
2019-04-26T21:19:12.756Z,53.88
2019-04-26T21:21:49.831Z,53.97
2019-04-26T21:24:28.149Z,54.64
2019-04-26T21:27:18.084Z,54.74
2019-04-26T21:30:03.708Z,55.17
2019-04-26T21:33:00.582Z,54.81
2019-04-26T21:35:48.702Z,54.82
2019-04-26T21:38:29.747Z,55.48
2019-04-26T21:41:45.156Z,55.52
2019-04-26T21:44:20.898Z,55.96
2019-04-26T21:53:07.146Z,55.86
2019-04-26T21:55:54.914Z,56.12
2019-04-26T21:58:46.728Z,56.36
2019-04-26T22:04:41.135Z,57.19
2019-04-26T22:07:19.531Z,56.97
2019-04-26T22:10:00.020Z,57.36
2019-04-26T22:12:36.466Z,58.34
2019-04-26T22:15:13.821Z,59.79
2019-04-26T22:17:55.963Z,61.21
2019-04-26T22:20:37.160Z,63.34
2019-04-26T22:23:16.534Z,64.27
2019-04-26T22:25:54.084Z,64.54
2019-04-26T22:28:35.959Z,66.66
2019-04-26T22:31:11.401Z,68.15
2019-04-26T22:33:47.434Z,71.09
2019-04-26T22:36:23.313Z,71.03
2019-04-26T22:39:04.629Z,73.45
2019-04-26T22:41:43.724Z,75.68
2019-04-26T22:44:39.127Z,77.97
2019-04-26T22:47:15.873Z,78.77
2019-04-26T22:49:53.048Z,79.73
2019-04-26T22:52:28.563Z,81.20
2019-04-26T22:55:08.033Z,80.90
2019-04-26T22:57:45.350Z,81.90
2019-04-26T23:00:25.582Z,80.59
2019-04-26T23:03:05.498Z,80.11
2019-04-26T23:05:39.229Z,80.63
2019-04-26T23:08:15.739Z,81.26
2019-04-26T23:10:53.134Z,83.13
2019-04-26T23:13:30.744Z,83.87
2019-04-26T23:16:15.204Z,82.72
2019-04-26T23:18:58.320Z,84.51
2019-04-26T23:21:44.282Z,84.46
2019-04-26T23:24:19.050Z,83.29
2019-04-26T23:26:55.899Z,82.51
2019-04-26T23:29:31.134Z,81.81
2019-04-26T23:32:06.861Z,81.82
2019-04-26T23:34:44.455Z,81.50
2019-04-26T23:37:25.895Z,82.96
2019-04-26T23:39:57.924Z,82.50
2019-04-26T23:42:33.599Z,82.55
2019-04-26T23:45:10.813Z,82.43
2019-04-26T23:47:47.289Z,82.21
2019-04-26T23:50:29.472Z,82.12
2019-04-26T23:53:03.108Z,82.88
2019-04-26T23:55:42.571Z,82.20
2019-04-26T23:58:15.126Z,83.66
